createdAt,value
2022-10-06T00:02:17.327Z,87
2022-10-06T00:05:17.314Z,87
2022-10-06T00:08:17.304Z,87
2022-10-06T00:11:17.409Z,87
2022-10-06T00:14:17.317Z,87
2022-10-06T00:17:17.316Z,88
2022-10-06T00:20:17.313Z,87
2022-10-06T00:23:17.315Z,87
2022-10-06T00:26:17.548Z,87
2022-10-06T00:29:17.311Z,87
2022-10-06T00:32:17.316Z,87
2022-10-06T00:35:17.316Z,87
2022-10-06T00:38:17.317Z,87
2022-10-06T00:41:17.339Z,87
2022-10-06T00:44:17.312Z,87
2022-10-06T00:47:17.319Z,87
2022-10-06T00:50:17.313Z,87
2022-10-06T00:53:17.313Z,87
2022-10-06T00:56:17.323Z,87
2022-10-06T00:59:17.322Z,87
2022-10-06T01:02:17.373Z,87
2022-10-06T01:05:17.323Z,87
2022-10-06T01:08:17.315Z,87
2022-10-06T01:11:17.335Z,87
2022-10-06T01:14:17.312Z,87
2022-10-06T01:17:17.414Z,87
2022-10-06T01:20:17.339Z,87
2022-10-06T01:23:17.317Z,87
2022-10-06T01:26:17.330Z,87
2022-10-06T01:29:17.324Z,87
2022-10-06T01:32:17.325Z,87
2022-10-06T01:35:17.318Z,87
2022-10-06T01:38:17.317Z,87
2022-10-06T01:41:17.337Z,87
2022-10-06T01:44:17.414Z,87
2022-10-06T01:47:17.332Z,87
2022-10-06T01:50:17.329Z,87
2022-10-06T01:53:17.320Z,87
2022-10-06T01:56:17.339Z,87
2022-10-06T01:59:17.315Z,87
2022-10-06T02:02:17.313Z,87
2022-10-06T02:05:17.322Z,87
2022-10-06T02:08:17.318Z,87
2022-10-06T02:11:17.326Z,87
2022-10-06T02:14:17.309Z,87
2022-10-06T02:17:17.324Z,87
2022-10-06T02:20:17.333Z,87
2022-10-06T02:23:17.324Z,87
2022-10-06T02:26:17.342Z,87
2022-10-06T02:29:17.323Z,87
2022-10-06T02:32:17.336Z,87
2022-10-06T02:35:17.336Z,87
2022-10-06T02:38:17.356Z,87
2022-10-06T02:41:17.330Z,87
2022-10-06T02:44:17.343Z,87
2022-10-06T02:47:17.344Z,87
2022-10-06T02:50:17.358Z,87
2022-10-06T02:53:17.382Z,87
2022-10-06T02:56:17.405Z,87
2022-10-06T02:59:17.364Z,87
2022-10-06T03:02:17.482Z,87
2022-10-06T03:05:17.521Z,87
2022-10-06T03:08:17.447Z,87
2022-10-06T03:11:17.438Z,87
2022-10-06T03:14:21.493Z,87
2022-10-06T03:17:17.438Z,87
2022-10-06T03:20:17.448Z,87
2022-10-06T03:23:17.436Z,87
2022-10-06T03:26:17.454Z,87
2022-10-06T03:29:17.433Z,87
2022-10-06T03:32:17.444Z,87
2022-10-06T03:35:17.443Z,87
2022-10-06T03:38:17.441Z,87
2022-10-06T03:41:17.433Z,87
2022-10-06T03:44:17.446Z,87
2022-10-06T03:47:17.758Z,87
2022-10-06T03:50:17.460Z,87
2022-10-06T03:53:17.435Z,87
2022-10-06T03:56:17.432Z,87
2022-10-06T03:59:17.451Z,86
2022-10-06T04:02:17.468Z,86
2022-10-06T04:05:17.448Z,86
2022-10-06T04:08:17.432Z,86
2022-10-06T04:11:17.436Z,86
2022-10-06T04:14:17.438Z,86
2022-10-06T04:17:17.440Z,86
2022-10-06T04:20:17.450Z,86
2022-10-06T04:23:17.441Z,86
2022-10-06T04:29:17.457Z,86
2022-10-06T04:32:17.446Z,86
2022-10-06T04:35:17.459Z,86
2022-10-06T04:38:17.444Z,86
2022-10-06T04:41:17.455Z,86
2022-10-06T04:44:17.446Z,86
2022-10-06T04:47:17.444Z,86
2022-10-06T04:50:17.467Z,86
2022-10-06T04:53:17.462Z,86
2022-10-06T04:56:17.449Z,86
2022-10-06T04:59:17.463Z,86
2022-10-06T05:02:17.532Z,85
2022-10-06T05:05:17.466Z,85
2022-10-06T05:08:17.451Z,85
2022-10-06T05:11:19.495Z,85
2022-10-06T05:14:17.625Z,85
2022-10-06T05:17:17.575Z,85
2022-10-06T05:20:17.633Z,85
2022-10-06T05:23:17.633Z,85
2022-10-06T05:26:17.762Z,85
2022-10-06T05:29:17.643Z,85
2022-10-06T05:32:17.646Z,85
2022-10-06T05:35:17.637Z,85
2022-10-06T05:38:17.644Z,85
2022-10-06T05:41:17.684Z,85
2022-10-06T05:44:17.669Z,85
2022-10-06T05:47:17.647Z,85
2022-10-06T05:50:18.825Z,84
2022-10-06T05:53:17.659Z,84
2022-10-06T05:56:17.664Z,84
2022-10-06T05:59:17.664Z,84
2022-10-06T06:02:17.834Z,84
2022-10-06T06:05:17.657Z,84
2022-10-06T06:11:17.662Z,84
2022-10-06T06:14:17.710Z,84
2022-10-06T06:17:17.698Z,84
2022-10-06T06:20:17.688Z,84
2022-10-06T06:23:17.677Z,84
2022-10-06T06:26:17.693Z,83
2022-10-06T06:29:17.672Z,83
2022-10-06T06:32:17.698Z,83
2022-10-06T06:35:17.697Z,83
2022-10-06T06:38:17.774Z,83
2022-10-06T06:41:17.765Z,83
2022-10-06T06:44:17.762Z,83
2022-10-06T06:47:19.094Z,83
2022-10-06T06:50:17.983Z,83
2022-10-06T06:56:17.972Z,83
2022-10-06T06:59:17.970Z,83
2022-10-06T07:02:17.984Z,83
2022-10-06T07:05:18.124Z,83
2022-10-06T07:08:17.980Z,83
2022-10-06T07:11:17.990Z,83
2022-10-06T07:14:17.986Z,83
2022-10-06T07:17:18.005Z,83
2022-10-06T07:20:18.006Z,83
2022-10-06T07:23:17.992Z,83
2022-10-06T07:26:17.998Z,83
2022-10-06T07:29:18.001Z,83
2022-10-06T07:32:17.988Z,83
2022-10-06T07:35:17.987Z,83
2022-10-06T07:38:18.009Z,83
2022-10-06T07:41:19.591Z,83
2022-10-06T07:44:17.992Z,83
2022-10-06T07:47:18.002Z,83
2022-10-06T07:50:20.410Z,83
2022-10-06T07:53:18.002Z,83
2022-10-06T07:56:18.013Z,82
2022-10-06T07:59:19.022Z,82
2022-10-06T08:02:18.007Z,82
2022-10-06T08:05:17.998Z,82
2022-10-06T08:08:18.000Z,82
2022-10-06T08:11:18.015Z,81
2022-10-06T08:14:17.998Z,81
2022-10-06T08:17:18.004Z,81
2022-10-06T08:20:18.012Z,81
2022-10-06T08:23:18.006Z,81
2022-10-06T08:26:18.019Z,81
2022-10-06T08:29:18.000Z,81
2022-10-06T08:32:18.007Z,80
2022-10-06T08:35:17.999Z,80
2022-10-06T08:38:18.011Z,80
2022-10-06T08:41:18.017Z,80
2022-10-06T08:47:18.003Z,79
2022-10-06T08:50:18.011Z,79
2022-10-06T08:53:18.008Z,79
2022-10-06T08:56:18.450Z,79
2022-10-06T08:59:18.430Z,79
2022-10-06T09:02:18.449Z,79
2022-10-06T09:05:18.439Z,79
2022-10-06T09:08:18.425Z,79
2022-10-06T09:11:18.454Z,78
2022-10-06T09:14:18.417Z,78
2022-10-06T09:17:18.432Z,78
2022-10-06T09:20:18.495Z,78
2022-10-06T09:26:18.452Z,78
2022-10-06T09:29:18.425Z,77
2022-10-06T09:32:18.426Z,77
2022-10-06T09:35:18.437Z,77
2022-10-06T09:38:18.427Z,77
2022-10-06T09:41:18.451Z,77
2022-10-06T09:44:18.423Z,76
2022-10-06T09:47:18.422Z,76
2022-10-06T09:50:18.627Z,76
2022-10-06T09:53:18.432Z,76
2022-10-06T09:56:18.452Z,76
2022-10-06T09:59:18.438Z,75
2022-10-06T10:02:18.431Z,75
2022-10-06T10:05:18.440Z,75
2022-10-06T10:08:18.440Z,75
2022-10-06T10:11:18.435Z,75
2022-10-06T10:14:18.429Z,74
2022-10-06T10:17:18.430Z,74
2022-10-06T10:20:18.435Z,74
2022-10-06T10:23:18.427Z,74
2022-10-06T10:26:18.441Z,74
2022-10-06T10:29:18.441Z,74
2022-10-06T10:32:18.431Z,73
2022-10-06T10:35:18.455Z,73
2022-10-06T10:38:18.441Z,73
2022-10-06T10:41:18.441Z,73
2022-10-06T10:44:18.437Z,73
2022-10-06T10:47:18.437Z,73
2022-10-06T10:50:18.439Z,73
2022-10-06T10:56:18.465Z,72
2022-10-06T10:59:18.434Z,72
2022-10-06T11:02:18.503Z,72
2022-10-06T11:05:18.435Z,72
2022-10-06T11:08:18.439Z,72
2022-10-06T11:11:18.431Z,72
2022-10-06T11:14:18.441Z,71
2022-10-06T11:17:18.440Z,71
2022-10-06T11:20:18.437Z,71
2022-10-06T11:23:18.435Z,71
2022-10-06T11:26:18.444Z,71
2022-10-06T11:29:18.451Z,71
2022-10-06T11:32:18.446Z,71
2022-10-06T11:35:18.445Z,71
2022-10-06T11:38:18.456Z,71
2022-10-06T11:41:18.448Z,71
2022-10-06T11:47:18.436Z,70
2022-10-06T11:50:18.444Z,70
2022-10-06T11:53:18.450Z,70
2022-10-06T11:56:18.446Z,70
2022-10-06T11:59:18.445Z,70
2022-10-06T12:02:18.515Z,70
2022-10-06T12:05:49.577Z,69
2022-10-06T12:08:18.436Z,69
2022-10-06T12:11:18.453Z,69
2022-10-06T12:17:19.405Z,69
2022-10-06T12:20:18.446Z,69
2022-10-06T12:23:18.440Z,69
2022-10-06T12:26:18.451Z,69
2022-10-06T12:29:18.461Z,69
2022-10-06T12:32:18.443Z,69
2022-10-06T12:35:18.447Z,69
2022-10-06T12:38:18.452Z,69
2022-10-06T12:41:18.458Z,69
2022-10-06T12:44:18.446Z,69
2022-10-06T12:47:18.444Z,69
2022-10-06T12:50:18.447Z,69
2022-10-06T12:53:18.440Z,68
2022-10-06T12:56:18.454Z,68
2022-10-06T12:59:18.449Z,68
2022-10-06T13:02:18.477Z,68
2022-10-06T13:05:18.437Z,68
2022-10-06T13:08:18.440Z,68
2022-10-06T13:11:18.464Z,68
2022-10-06T13:14:18.468Z,68
2022-10-06T13:17:18.469Z,67
2022-10-06T13:20:18.455Z,67
2022-10-06T13:23:18.463Z,67
2022-10-06T13:26:18.463Z,67
2022-10-06T13:29:18.492Z,67
2022-10-06T13:32:18.454Z,67
2022-10-06T13:35:18.460Z,67
2022-10-06T13:38:18.453Z,66
2022-10-06T13:41:18.460Z,66
2022-10-06T13:44:18.475Z,66
2022-10-06T13:47:18.468Z,66
2022-10-06T13:50:19.897Z,66
2022-10-06T13:53:18.469Z,66
2022-10-06T13:56:18.484Z,66
2022-10-06T13:59:18.483Z,66
2022-10-06T14:02:18.533Z,65
2022-10-06T14:05:18.511Z,65
2022-10-06T14:08:18.476Z,65
2022-10-06T14:11:18.469Z,66
2022-10-06T14:14:18.487Z,65
2022-10-06T14:17:18.484Z,66
2022-10-06T14:20:18.472Z,65
2022-10-06T14:23:18.469Z,65
2022-10-06T14:26:18.479Z,65
2022-10-06T14:29:18.487Z,66
2022-10-06T14:32:18.487Z,66
2022-10-06T14:35:18.476Z,66
2022-10-06T14:38:18.474Z,66
2022-10-06T14:41:19.155Z,66
2022-10-06T14:44:18.482Z,65
2022-10-06T14:47:18.498Z,65
2022-10-06T14:50:18.484Z,65
2022-10-06T14:53:18.471Z,65
2022-10-06T14:56:18.476Z,65
2022-10-06T14:59:18.486Z,65
2022-10-06T15:02:18.544Z,65
2022-10-06T15:05:18.479Z,65
2022-10-06T15:08:18.491Z,65
2022-10-06T15:11:18.477Z,65
2022-10-06T15:14:18.492Z,65
2022-10-06T15:17:18.471Z,65
2022-10-06T15:20:18.473Z,65
2022-10-06T15:23:18.495Z,65
2022-10-06T15:26:18.477Z,65
2022-10-06T15:29:18.519Z,65
2022-10-06T15:32:18.476Z,65
2022-10-06T15:35:18.478Z,65
2022-10-06T15:38:18.482Z,65
2022-10-06T15:41:18.488Z,65
2022-10-06T15:44:18.509Z,65
2022-10-06T15:47:18.489Z,65
2022-10-06T15:50:19.054Z,65
2022-10-06T15:53:18.485Z,65
2022-10-06T15:56:18.491Z,65
2022-10-06T15:59:18.506Z,65
2022-10-06T16:02:18.650Z,66
2022-10-06T16:05:18.480Z,65
2022-10-06T16:08:18.487Z,65
2022-10-06T16:11:18.504Z,66
2022-10-06T16:14:18.509Z,66
2022-10-06T16:17:18.489Z,66
2022-10-06T16:20:18.490Z,66
2022-10-06T16:23:18.504Z,66
2022-10-06T16:26:18.493Z,66
2022-10-06T16:29:18.500Z,66
2022-10-06T16:32:18.481Z,66
2022-10-06T16:35:18.683Z,66
2022-10-06T16:38:18.495Z,66
2022-10-06T16:41:18.489Z,66
2022-10-06T16:44:18.509Z,67
2022-10-06T16:47:18.490Z,67
2022-10-06T16:50:18.500Z,67
2022-10-06T16:53:18.495Z,67
2022-10-06T16:56:18.490Z,67
2022-10-06T16:59:18.509Z,67
2022-10-06T17:02:18.503Z,67
2022-10-06T17:05:18.506Z,68
2022-10-06T17:08:18.502Z,68
2022-10-06T17:11:18.501Z,68
2022-10-06T17:14:18.518Z,68
2022-10-06T17:17:18.499Z,68
2022-10-06T17:20:18.497Z,68
2022-10-06T17:23:18.499Z,68
2022-10-06T17:26:18.501Z,69
2022-10-06T17:29:18.505Z,69
2022-10-06T17:32:18.507Z,69
2022-10-06T17:35:18.501Z,69
2022-10-06T17:38:18.506Z,69
2022-10-06T17:41:18.510Z,69
2022-10-06T17:44:18.509Z,69
2022-10-06T17:47:18.511Z,69
2022-10-06T17:50:18.502Z,70
2022-10-06T17:53:18.510Z,69
2022-10-06T17:56:18.511Z,70
2022-10-06T17:59:18.517Z,70
2022-10-06T18:02:18.602Z,70
2022-10-06T18:05:18.503Z,70
2022-10-06T18:08:18.518Z,70
2022-10-06T18:11:18.509Z,70
2022-10-06T18:14:18.509Z,70
2022-10-06T18:17:18.508Z,70
2022-10-06T18:20:18.504Z,70
2022-10-06T18:23:18.509Z,70
2022-10-06T18:26:18.517Z,70
2022-10-06T18:29:18.520Z,70
2022-10-06T18:38:18.518Z,71
2022-10-06T18:41:18.516Z,71
2022-10-06T18:44:18.515Z,71
2022-10-06T18:47:18.519Z,71
2022-10-06T18:50:18.513Z,71
2022-10-06T18:53:18.525Z,71
2022-10-06T18:56:18.529Z,71
2022-10-06T18:59:18.526Z,71
2022-10-06T19:02:18.639Z,72
2022-10-06T19:05:18.508Z,72
2022-10-06T19:08:18.529Z,72
2022-10-06T19:11:18.520Z,72
2022-10-06T19:14:18.531Z,72
2022-10-06T19:17:18.521Z,72
2022-10-06T19:20:18.843Z,72
2022-10-06T19:23:18.527Z,72
2022-10-06T19:26:18.519Z,72
2022-10-06T19:29:18.534Z,72
2022-10-06T19:32:18.531Z,73
2022-10-06T19:35:18.519Z,73
2022-10-06T19:38:18.550Z,73
2022-10-06T19:41:18.539Z,73
2022-10-06T19:44:18.534Z,73
2022-10-06T19:47:18.529Z,73
2022-10-06T19:50:18.524Z,73
2022-10-06T19:53:18.535Z,73
2022-10-06T19:56:18.520Z,73
2022-10-06T19:59:18.542Z,74
2022-10-06T20:02:18.531Z,74
2022-10-06T20:05:18.520Z,74
2022-10-06T20:08:18.536Z,74
2022-10-06T20:11:18.525Z,74
2022-10-06T20:14:20.935Z,74
2022-10-06T20:17:18.534Z,74
2022-10-06T20:20:18.530Z,74
2022-10-06T20:23:18.530Z,74
2022-10-06T20:26:18.526Z,74
2022-10-06T20:29:18.541Z,74
2022-10-06T20:32:18.528Z,74
2022-10-06T20:35:18.527Z,74
2022-10-06T20:38:18.535Z,74
2022-10-06T20:41:18.536Z,74
2022-10-06T20:44:18.544Z,74
2022-10-06T20:47:18.549Z,75
2022-10-06T20:50:18.529Z,75
2022-10-06T20:53:18.535Z,75
2022-10-06T20:56:18.530Z,75
2022-10-06T20:59:18.552Z,75
2022-10-06T21:02:18.633Z,75
2022-10-06T21:05:18.591Z,75
2022-10-06T21:08:18.601Z,75
2022-10-06T21:11:18.597Z,75
2022-10-06T21:14:18.612Z,75
2022-10-06T21:17:18.607Z,75
2022-10-06T21:20:18.592Z,75
2022-10-06T21:23:18.613Z,75
2022-10-06T21:26:18.592Z,75
2022-10-06T21:29:18.619Z,75
2022-10-06T21:32:18.614Z,75
2022-10-06T21:35:18.604Z,75
2022-10-06T21:38:18.598Z,75
2022-10-06T21:41:18.606Z,75
2022-10-06T21:44:18.617Z,76
2022-10-06T21:47:18.663Z,76
2022-10-06T21:50:18.612Z,76
2022-10-06T21:53:18.613Z,76
2022-10-06T21:56:18.601Z,76
2022-10-06T21:59:18.622Z,76
2022-10-06T22:02:18.612Z,76
2022-10-06T22:05:18.608Z,76
2022-10-06T22:08:18.613Z,76
2022-10-06T22:11:18.611Z,76
2022-10-06T22:14:18.625Z,76
2022-10-06T22:17:18.608Z,76
2022-10-06T22:20:18.606Z,76
2022-10-06T22:23:18.613Z,76
2022-10-06T22:26:18.606Z,76
2022-10-06T22:29:18.629Z,76
2022-10-06T22:32:18.616Z,76
2022-10-06T22:35:18.606Z,76
2022-10-06T22:38:18.623Z,76
2022-10-06T22:41:18.604Z,76
2022-10-06T22:47:18.631Z,76
2022-10-06T22:50:18.611Z,76
2022-10-06T22:53:18.621Z,76
2022-10-06T22:56:18.617Z,76
2022-10-06T22:59:18.622Z,76
2022-10-06T23:02:18.623Z,77
2022-10-06T23:05:18.618Z,77
2022-10-06T23:08:18.621Z,77
2022-10-06T23:11:18.613Z,77
2022-10-06T23:14:18.624Z,77
2022-10-06T23:17:18.619Z,77
2022-10-06T23:20:18.614Z,77
2022-10-06T23:23:18.624Z,77
2022-10-06T23:26:18.617Z,77
2022-10-06T23:29:18.631Z,77
2022-10-06T23:32:18.627Z,77
2022-10-06T23:35:18.618Z,77
2022-10-06T23:38:18.625Z,77
2022-10-06T23:41:18.620Z,77
2022-10-06T23:44:18.640Z,77
2022-10-06T23:47:18.634Z,77
2022-10-06T23:50:18.612Z,77
2022-10-06T23:56:18.622Z,77
2022-10-06T23:59:18.626Z,77
